Time;durP1;ratioP1;P1;durP2;ratioP2;P2;SDS_P1;SDS_P2;PMS_P1;PMS_P2;Temp;Humidity;BMP_temperature;BMP_pressure;BME280_temperature;BME280_humidity;BME280_pressure;Samples;Min_cycle;Max_cycle;Signal;HPM_P1;HPM_P2
2022/08/13 00:02:48;;;;;;;;;;;19.30;99.90;;;;;;5070939;28;19996;-82
2022/08/13 00:05:01;;;;;;;;;;;19.20;99.90;;;;;;5072869;28;19924;-82
2022/08/13 00:08:15;;;;;;;;;;;19.20;99.90;;;;;;5046886;28;20326;-83
2022/08/13 00:10:44;;;;;;;;;;;19.20;99.90;;;;;;5026628;28;19999;-80
2022/08/13 00:13:12;;;;;;;;;;;19.20;99.90;;;;;;5034831;28;19978;-79
2022/08/13 00:15:43;;;;;;;;;;;19.20;99.90;;;;;;5057289;28;19948;-81
2022/08/13 00:18:10;;;;;;;;;;;19.20;99.90;;;;;;5048626;28;19925;-80
2022/08/13 00:20:49;;;;;;;;;;;19.20;99.90;;;;;;5046133;28;20453;-80
2022/08/13 00:26:37;;;;;;;;;;;19.20;99.90;;;;;;5041062;28;19928;-79
2022/08/13 00:29:03;;;;;;;;;;;19.20;99.90;;;;;;5026574;28;19932;-80
2022/08/13 00:31:31;;;;;;;;;;;19.10;99.90;;;;;;5035381;28;19925;-79
2022/08/13 00:33:58;;;;;;;;;;;19.10;99.90;;;;;;5029799;28;19924;-80
2022/08/13 00:36:24;;;;;;;;;;;19.10;99.90;;;;;;5040860;28;20027;-79
2022/08/13 00:38:52;;;;;;;;;;;19.10;99.90;;;;;;5030416;28;19968;-80
2022/08/13 00:44:04;;;;;;;;;;;19.00;99.90;;;;;;5025437;28;19932;-80
2022/08/13 00:46:30;;;;;;;;;;;19.00;99.90;;;;;;5019494;28;19938;-80
2022/08/13 00:48:56;;;;;;;;;;;19.00;99.90;;;;;;5044284;28;20111;-80
2022/08/13 00:51:23;;;;;;;;;;;18.90;99.90;;;;;;5045101;28;20409;-80
2022/08/13 00:53:54;;;;;;;;;;;18.90;99.90;;;;;;5061526;28;20202;-80
2022/08/13 00:56:37;;;;;;;;;;;18.90;99.90;;;;;;5046357;28;20337;-81
2022/08/13 00:59:10;;;;;;;;;;;18.80;99.90;;;;;;5069077;28;20317;-81
2022/08/13 01:01:38;;;;;;;;;;;18.80;99.90;;;;;;5088995;28;20317;-80
2022/08/13 01:04:08;;;;;;;;;;;18.80;99.90;;;;;;5089454;28;19924;-81
2022/08/13 01:06:36;;;;;;;;;;;18.70;99.90;;;;;;5076106;28;19985;-80
2022/08/13 01:09:03;;;;;;;;;;;18.70;99.90;;;;;;5082155;28;19923;-80
2022/08/13 01:11:32;;;;;;;;;;;18.70;99.90;;;;;;5076065;28;19989;-80
2022/08/13 01:13:59;;;;;;;;;;;18.70;99.90;;;;;;5093928;28;19923;-80
2022/08/13 01:16:27;;;;;;;;;;;18.70;99.90;;;;;;5074922;28;19928;-80
2022/08/13 01:18:53;;;;;;;;;;;18.70;99.90;;;;;;5087201;28;19992;-79
2022/08/13 01:21:23;;;;;;;;;;;18.70;99.90;;;;;;5056279;28;19932;-79
2022/08/13 01:23:51;;;;;;;;;;;18.70;99.90;;;;;;5086105;28;19953;-80
2022/08/13 01:26:18;;;;;;;;;;;18.60;99.90;;;;;;5076882;28;19924;-79
2022/08/13 01:28:44;;;;;;;;;;;18.70;99.90;;;;;;5073648;28;20446;-80
2022/08/13 01:31:18;;;;;;;;;;;18.60;99.90;;;;;;5065768;28;19928;-80
2022/08/13 01:33:59;;;;;;;;;;;18.60;99.90;;;;;;5088513;28;19978;-80
2022/08/13 01:36:27;;;;;;;;;;;18.60;99.90;;;;;;5101700;28;19938;-81
2022/08/13 01:38:57;;;;;;;;;;;18.60;99.90;;;;;;5094049;28;19932;-82
2022/08/13 01:41:25;;;;;;;;;;;18.60;99.90;;;;;;5063571;28;20630;-82
2022/08/13 01:44:04;;;;;;;;;;;18.50;99.90;;;;;;5091251;28;20310;-82
2022/08/13 01:52:08;;;;;;;;;;;18.40;99.90;;;;;;5077074;28;19967;-80
2022/08/13 01:54:34;;;;;;;;;;;18.40;99.90;;;;;;5092180;28;20235;-83
2022/08/13 01:57:02;;;;;;;;;;;18.30;99.90;;;;;;5067235;27;19988;-83
2022/08/13 01:59:28;;;;;;;;;;;18.30;99.90;;;;;;5114255;27;19939;-82
2022/08/13 02:01:55;;;;;;;;;;;18.20;99.90;;;;;;5067304;28;19934;-82
2022/08/13 02:04:24;;;;;;;;;;;18.20;99.90;;;;;;5072368;28;19928;-82
2022/08/13 02:09:32;;;;;;;;;;;18.20;99.90;;;;;;5140613;22;19930;-77
2022/08/13 02:11:58;;;;;;;;;;;18.10;99.90;;;;;;5071221;28;19932;-76
2022/08/13 02:14:24;;;;;;;;;;;18.10;99.90;;;;;;5054269;28;19928;-77
2022/08/13 02:16:50;;;;;;;;;;;18.20;99.90;;;;;;5054683;28;19972;-78
2022/08/13 02:19:15;;;;;;;;;;;18.00;99.90;;;;;;5072683;28;19985;-78
2022/08/13 02:21:44;;;;;;;;;;;18.00;99.90;;;;;;5072049;28;20324;-78
2022/08/13 02:24:13;;;;;;;;;;;18.00;99.90;;;;;;5067206;28;19924;-77
2022/08/13 02:26:41;;;;;;;;;;;18.00;99.90;;;;;;5069698;28;20031;-77
2022/08/13 02:29:28;;;;;;;;;;;18.00;99.90;;;;;;5075567;28;19970;-77
2022/08/13 02:35:00;;;;;;;;;;;18.00;99.90;;;;;;5075205;28;19974;-77
2022/08/13 02:37:26;;;;;;;;;;;18.00;99.90;;;;;;5073594;28;19975;-76
2022/08/13 02:39:52;;;;;;;;;;;18.00;99.90;;;;;;5075710;28;19924;-77
2022/08/13 02:42:19;;;;;;;;;;;18.00;99.90;;;;;;5079418;28;19928;-77
2022/08/13 02:44:48;;;;;;;;;;;18.00;99.90;;;;;;5067711;28;19931;-78
2022/08/13 02:47:29;;;;;;;;;;;18.00;99.90;;;;;;5070229;28;19931;-77
2022/08/13 02:49:59;;;;;;;;;;;18.00;99.90;;;;;;5070983;28;19935;-77
2022/08/13 02:52:28;;;;;;;;;;;17.90;99.90;;;;;;5070842;28;19988;-77
2022/08/13 02:54:54;;;;;;;;;;;17.90;99.90;;;;;;5058996;28;19958;-78
2022/08/13 02:57:21;;;;;;;;;;;17.90;99.90;;;;;;5061290;28;20495;-77
2022/08/13 02:59:47;;;;;;;;;;;17.90;99.90;;;;;;5053127;28;19924;-77
2022/08/13 03:02:13;;;;;;;;;;;17.80;99.90;;;;;;5048050;28;19927;-77
2022/08/13 03:04:43;;;;;;;;;;;17.80;99.90;;;;;;5053180;28;20448;-78
2022/08/13 03:07:09;;;;;;;;;;;17.80;99.90;;;;;;5065284;28;19928;-78
2022/08/13 03:09:36;;;;;;;;;;;17.80;99.90;;;;;;5068133;28;20011;-78
2022/08/13 03:12:04;;;;;;;;;;;17.80;99.90;;;;;;5040088;28;19931;-78
2022/08/13 03:14:34;;;;;;;;;;;17.80;99.90;;;;;;5051872;28;19935;-78
2022/08/13 03:16:59;;;;;;;;;;;17.80;99.90;;;;;;5058207;28;20332;-78
2022/08/13 03:19:25;;;;;;;;;;;17.80;99.90;;;;;;5058896;28;19928;-78
2022/08/13 03:21:51;;;;;;;;;;;17.70;99.90;;;;;;5048798;28;19928;-78
2022/08/13 03:24:17;;;;;;;;;;;17.70;99.90;;;;;;5059724;28;19920;-77
2022/08/13 03:26:44;;;;;;;;;;;17.70;99.90;;;;;;5058412;28;19924;-78
2022/08/13 03:29:10;;;;;;;;;;;17.70;99.90;;;;;;5066013;28;20408;-78
2022/08/13 03:31:36;;;;;;;;;;;17.70;99.90;;;;;;5068252;28;19935;-78
2022/08/13 03:34:03;;;;;;;;;;;17.70;99.90;;;;;;5064914;28;19924;-78
2022/08/13 03:36:30;;;;;;;;;;;17.70;99.90;;;;;;5053721;28;19928;-79
2022/08/13 03:38:56;;;;;;;;;;;17.60;99.90;;;;;;5075130;28;20046;-78
2022/08/13 03:41:22;;;;;;;;;;;17.60;99.90;;;;;;5054054;28;19928;-77
2022/08/13 03:43:48;;;;;;;;;;;17.60;99.90;;;;;;5057280;28;20452;-77
2022/08/13 03:46:21;;;;;;;;;;;17.60;99.90;;;;;;5069311;28;19984;-77
2022/08/13 03:48:48;;;;;;;;;;;17.50;99.90;;;;;;5068113;28;19928;-76
2022/08/13 03:51:16;;;;;;;;;;;17.50;99.90;;;;;;5084255;28;19939;-78
2022/08/13 03:53:43;;;;;;;;;;;17.40;99.90;;;;;;5068960;28;19985;-78
2022/08/13 03:56:10;;;;;;;;;;;17.40;99.90;;;;;;5056247;28;20056;-79
2022/08/13 03:58:37;;;;;;;;;;;17.40;99.90;;;;;;5036967;28;19928;-79
2022/08/13 04:01:04;;;;;;;;;;;17.40;99.90;;;;;;5066089;28;19986;-78
2022/08/13 04:03:36;;;;;;;;;;;17.30;99.90;;;;;;5053042;28;19928;-78
2022/08/13 04:06:07;;;;;;;;;;;17.20;99.90;;;;;;5053204;28;19932;-78
2022/08/13 04:08:34;;;;;;;;;;;17.20;99.90;;;;;;5057914;28;20029;-78
2022/08/13 04:11:01;;;;;;;;;;;17.20;99.90;;;;;;5052122;28;19929;-78
2022/08/13 04:13:28;;;;;;;;;;;17.10;99.90;;;;;;5046863;28;19933;-77
2022/08/13 04:15:53;;;;;;;;;;;17.10;99.90;;;;;;5011591;28;19925;-78
2022/08/13 04:18:19;;;;;;;;;;;17.10;99.90;;;;;;5010500;28;19935;-77
2022/08/13 04:20:52;;;;;;;;;;;17.10;99.90;;;;;;5029976;28;19936;-76
2022/08/13 04:23:19;;;;;;;;;;;17.20;99.90;;;;;;5013823;28;19924;-77
2022/08/13 04:25:46;;;;;;;;;;;17.20;99.90;;;;;;5030961;28;19935;-77
2022/08/13 04:28:12;;;;;;;;;;;17.20;99.90;;;;;;5020092;28;20046;-79
2022/08/13 04:30:41;;;;;;;;;;;17.20;99.90;;;;;;5041269;28;19924;-79
2022/08/13 04:33:10;;;;;;;;;;;17.20;99.90;;;;;;5015848;28;19925;-79
2022/08/13 04:35:37;;;;;;;;;;;17.20;99.90;;;;;;5040200;28;19924;-78
2022/08/13 04:38:05;;;;;;;;;;;17.20;99.90;;;;;;5046889;28;20019;-78
2022/08/13 04:40:33;;;;;;;;;;;17.20;99.90;;;;;;5026844;28;20002;-79
2022/08/13 04:42:58;;;;;;;;;;;17.20;99.90;;;;;;5033315;28;19929;-80
2022/08/13 04:45:25;;;;;;;;;;;17.20;99.90;;;;;;5022625;28;19928;-78
2022/08/13 04:47:52;;;;;;;;;;;17.20;99.90;;;;;;5029663;28;19931;-79
2022/08/13 04:50:18;;;;;;;;;;;17.20;99.90;;;;;;5054401;28;19924;-79
2022/08/13 04:52:44;;;;;;;;;;;17.30;99.90;;;;;;5033268;28;19928;-78
2022/08/13 04:55:12;;;;;;;;;;;17.30;99.90;;;;;;5029299;28;19950;-79
2022/08/13 04:57:41;;;;;;;;;;;17.30;99.90;;;;;;5012947;28;20359;-80
2022/08/13 05:00:07;;;;;;;;;;;17.30;99.90;;;;;;5039657;28;20047;-79
2022/08/13 05:02:40;;;;;;;;;;;17.30;99.90;;;;;;5006831;28;19925;-78
2022/08/13 05:05:06;;;;;;;;;;;17.30;99.90;;;;;;5022698;28;20361;-78
2022/08/13 05:07:32;;;;;;;;;;;17.30;99.90;;;;;;5047428;28;19921;-78
2022/08/13 05:09:58;;;;;;;;;;;17.30;99.90;;;;;;5047439;28;20026;-79
2022/08/13 05:12:24;;;;;;;;;;;17.40;99.90;;;;;;5053907;28;19930;-78
2022/08/13 05:14:50;;;;;;;;;;;17.40;99.90;;;;;;5041398;28;20493;-79
2022/08/13 05:17:16;;;;;;;;;;;17.40;99.90;;;;;;5058395;28;20576;-79
2022/08/13 05:19:45;;;;;;;;;;;17.50;99.90;;;;;;5069036;28;19924;-79
2022/08/13 05:22:11;;;;;;;;;;;17.50;99.90;;;;;;5081680;28;19966;-78
2022/08/13 05:24:37;;;;;;;;;;;17.60;99.90;;;;;;5054677;28;19967;-78
2022/08/13 05:27:03;;;;;;;;;;;17.70;99.90;;;;;;5085959;28;19964;-78
2022/08/13 05:29:29;;;;;;;;;;;17.70;99.90;;;;;;5072106;28;19998;-79
2022/08/13 05:31:54;;;;;;;;;;;17.70;99.90;;;;;;5070103;28;20371;-78
2022/08/13 05:34:20;;;;;;;;;;;17.70;99.90;;;;;;5049448;28;19989;-80
2022/08/13 05:36:46;;;;;;;;;;;17.70;99.90;;;;;;5077613;28;20359;-78
2022/08/13 05:39:13;;;;;;;;;;;17.80;99.90;;;;;;5071332;28;20485;-78
2022/08/13 05:41:41;;;;;;;;;;;17.80;99.90;;;;;;5048175;28;20006;-78
2022/08/13 05:44:09;;;;;;;;;;;17.90;99.90;;;;;;5058210;28;20384;-78
2022/08/13 05:46:34;;;;;;;;;;;18.00;99.90;;;;;;5048776;28;19931;-78
2022/08/13 05:49:00;;;;;;;;;;;18.00;99.90;;;;;;5067102;28;19928;-78
2022/08/13 05:51:33;;;;;;;;;;;18.10;99.90;;;;;;5045072;28;19998;-78
2022/08/13 05:54:00;;;;;;;;;;;18.10;99.90;;;;;;5059696;28;20426;-79
2022/08/13 05:56:36;;;;;;;;;;;18.20;99.90;;;;;;5071303;28;20087;-77
2022/08/13 05:59:03;;;;;;;;;;;18.30;99.90;;;;;;5070099;28;19928;-78
2022/08/13 06:04:20;;;;;;;;;;;18.40;99.90;;;;;;5055871;28;19924;-79
2022/08/13 06:06:47;;;;;;;;;;;18.50;99.90;;;;;;5054841;28;19928;-79
2022/08/13 06:09:13;;;;;;;;;;;18.60;99.90;;;;;;5064367;28;19954;-77
2022/08/13 06:11:42;;;;;;;;;;;18.70;99.90;;;;;;5049736;28;20333;-79
2022/08/13 06:14:08;;;;;;;;;;;18.80;99.90;;;;;;5070530;28;19924;-78
2022/08/13 06:16:34;;;;;;;;;;;18.90;99.90;;;;;;5066834;28;20588;-79
2022/08/13 06:19:00;;;;;;;;;;;19.00;99.90;;;;;;5058727;28;19927;-82
2022/08/13 06:21:27;;;;;;;;;;;19.10;99.90;;;;;;5055331;28;19924;-80
2022/08/13 06:23:53;;;;;;;;;;;19.20;99.90;;;;;;5053398;28;19957;-80
2022/08/13 06:26:20;;;;;;;;;;;19.30;99.90;;;;;;5061251;28;20449;-83
2022/08/13 06:28:47;;;;;;;;;;;19.50;99.90;;;;;;5070479;28;20031;-80
2022/08/13 06:31:16;;;;;;;;;;;19.60;99.90;;;;;;5068715;28;19946;-80
2022/08/13 06:33:43;;;;;;;;;;;19.60;99.90;;;;;;5068386;28;20374;-80
2022/08/13 06:36:15;;;;;;;;;;;19.80;99.90;;;;;;5052872;28;19934;-81
2022/08/13 06:38:48;;;;;;;;;;;19.90;99.90;;;;;;5054115;28;20599;-79
2022/08/13 06:41:15;;;;;;;;;;;20.00;99.90;;;;;;5047374;28;19971;-79
2022/08/13 06:43:42;;;;;;;;;;;20.20;99.90;;;;;;5070291;28;20533;-79
2022/08/13 06:46:11;;;;;;;;;;;20.40;99.90;;;;;;5064517;28;20038;-80
2022/08/13 06:48:37;;;;;;;;;;;20.50;99.90;;;;;;5071381;28;19924;-79
2022/08/13 06:51:07;;;;;;;;;;;20.70;99.90;;;;;;5072410;28;20516;-80
2022/08/13 06:53:35;;;;;;;;;;;20.90;99.90;;;;;;5065850;28;20265;-82
2022/08/13 06:56:05;;;;;;;;;;;21.40;99.90;;;;;;5048888;28;19928;-81
2022/08/13 06:58:31;;;;;;;;;;;22.00;99.90;;;;;;5077926;28;19920;-80
2022/08/13 07:00:58;;;;;;;;;;;22.30;99.90;;;;;;5067930;28;19935;-82
2022/08/13 07:03:28;;;;;;;;;;;22.30;99.90;;;;;;5061806;28;19924;-79
2022/08/13 07:05:56;;;;;;;;;;;22.30;99.90;;;;;;5061240;28;20322;-85
2022/08/13 07:08:24;;;;;;;;;;;22.40;99.90;;;;;;5048951;28;20335;-78
2022/08/13 07:11:21;;;;;;;;;;;22.60;99.90;;;;;;5056270;28;19929;-79
2022/08/13 07:13:40;;;;;;;;;;;22.80;99.90;;;;;;5004463;28;19948;-85
2022/08/13 07:16:06;;;;;;;;;;;23.10;99.90;;;;;;5028676;28;19964;-80
2022/08/13 07:18:32;;;;;;;;;;;23.50;99.90;;;;;;5030966;28;19921;-83
2022/08/13 07:20:59;;;;;;;;;;;23.90;99.90;;;;;;5014268;28;19928;-87
2022/08/13 07:23:27;;;;;;;;;;;24.30;99.90;;;;;;5015238;28;19990;-85
2022/08/13 07:25:56;;;;;;;;;;;24.70;99.90;;;;;;5013280;28;19932;-88
2022/08/13 07:28:23;;;;;;;;;;;25.30;99.90;;;;;;5022017;28;19921;-84
2022/08/13 07:30:52;;;;;;;;;;;25.80;99.90;;;;;;5013940;28;19937;-84
2022/08/13 07:33:18;;;;;;;;;;;26.80;99.30;;;;;;5031602;28;19924;-79
2022/08/13 07:35:44;;;;;;;;;;;27.60;95.20;;;;;;5012078;28;19925;-84
2022/08/13 07:38:10;;;;;;;;;;;28.40;92.80;;;;;;5045832;28;19935;-81
2022/08/13 07:40:36;;;;;;;;;;;29.10;90.40;;;;;;5013231;28;19936;-78
2022/08/13 07:43:04;;;;;;;;;;;29.80;88.70;;;;;;5026945;28;20307;-79
2022/08/13 07:45:29;;;;;;;;;;;30.60;86.40;;;;;;5028736;28;19939;-82
2022/08/13 07:47:57;;;;;;;;;;;31.30;80.70;;;;;;5014613;28;19928;-78
2022/08/13 07:50:23;;;;;;;;;;;31.50;75.90;;;;;;5030416;28;20057;-86
2022/08/13 07:52:55;;;;;;;;;;;31.90;73.70;;;;;;5011279;28;20315;-80
2022/08/13 07:55:25;;;;;;;;;;;32.00;73.00;;;;;;5014284;28;19964;-82
2022/08/13 07:57:52;;;;;;;;;;;31.50;69.70;;;;;;5014253;28;19991;-82
2022/08/13 08:00:21;;;;;;;;;;;31.50;70.30;;;;;;5028596;28;20528;-81
2022/08/13 08:03:01;;;;;;;;;;;31.70;70.20;;;;;;5013800;28;20710;-79
2022/08/13 08:05:35;;;;;;;;;;;32.10;71.20;;;;;;5030587;28;20015;-83
2022/08/13 08:08:02;;;;;;;;;;;32.50;67.90;;;;;;5031074;28;20483;-84
2022/08/13 08:10:28;;;;;;;;;;;32.70;65.50;;;;;;5034652;28;19936;-81
2022/08/13 08:12:59;;;;;;;;;;;32.70;64.70;;;;;;5037849;28;19951;-84
2022/08/13 08:15:26;;;;;;;;;;;33.10;67.40;;;;;;5033821;28;19936;-80
2022/08/13 08:17:52;;;;;;;;;;;33.70;66.70;;;;;;5057152;28;19925;-79
2022/08/13 08:20:21;;;;;;;;;;;;;;;;;;5047332;28;20015;-81
2022/08/13 08:22:48;;;;;;;;;;;34.10;63.80;;;;;;5051737;28;19928;-81
2022/08/13 08:25:17;;;;;;;;;;;34.20;63.20;;;;;;5051853;28;19929;-84
2022/08/13 08:27:43;;;;;;;;;;;34.50;62.80;;;;;;5023484;28;19927;-81
2022/08/13 08:30:09;;;;;;;;;;;34.80;61.40;;;;;;5029219;28;19928;-82
2022/08/13 08:32:36;;;;;;;;;;;34.90;60.70;;;;;;5047004;28;20508;-82
2022/08/13 08:35:02;;;;;;;;;;;34.70;59.90;;;;;;5052411;28;20029;-80
2022/08/13 08:43:03;;;;;;;;;;;34.40;60.10;;;;;;5070296;28;19940;-82
2022/08/13 08:45:30;;;;;;;;;;;34.40;59.60;;;;;;5029015;28;19929;-81
2022/08/13 08:47:57;;;;;;;;;;;34.20;59.00;;;;;;5032271;28;19975;-81
2022/08/13 08:50:24;;;;;;;;;;;34.10;58.60;;;;;;5064147;28;19925;-81
2022/08/13 08:55:36;;;;;;;;;;;33.90;61.70;;;;;;5052450;28;20417;-83
2022/08/13 08:58:06;;;;;;;;;;;33.70;58.90;;;;;;5045120;28;19979;-81
2022/08/13 09:00:33;;;;;;;;;;;33.50;60.70;;;;;;5036263;28;19925;-82
2022/08/13 09:03:00;;;;;;;;;;;33.10;58.40;;;;;;5009688;28;19932;-83
2022/08/13 09:05:26;;;;;;;;;;;33.00;60.10;;;;;;5039673;28;19929;-80
2022/08/13 09:07:55;;;;;;;;;;;32.80;59.70;;;;;;5049705;28;19977;-80
2022/08/13 09:10:22;;;;;;;;;;;32.70;60.40;;;;;;5032478;28;19932;-81
2022/08/13 09:12:50;;;;;;;;;;;32.30;59.60;;;;;;5046508;28;19933;-80
2022/08/13 09:15:21;;;;;;;;;;;32.00;60.60;;;;;;5044431;28;19929;-79
2022/08/13 09:17:47;;;;;;;;;;;31.70;59.90;;;;;;5035729;28;19925;-81
2022/08/13 09:20:14;;;;;;;;;;;31.50;62.40;;;;;;5044006;28;19925;-85
2022/08/13 09:22:41;;;;;;;;;;;31.30;58.00;;;;;;5060664;28;19936;-82
2022/08/13 09:25:08;;;;;;;;;;;31.40;61.80;;;;;;5044906;28;20024;-85
2022/08/13 09:27:35;;;;;;;;;;;31.30;60.20;;;;;;5031449;28;19924;-83
2022/08/13 09:30:01;;;;;;;;;;;31.30;58.30;;;;;;5027253;28;19952;-82
2022/08/13 09:32:31;;;;;;;;;;;31.40;60.60;;;;;;5031121;28;19924;-80
2022/08/13 09:35:00;;;;;;;;;;;31.50;59.80;;;;;;5042095;28;20405;-88
2022/08/13 09:37:27;;;;;;;;;;;31.50;59.60;;;;;;5030599;28;19978;-82
2022/08/13 09:39:54;;;;;;;;;;;31.40;59.30;;;;;;5024744;28;19925;-88
2022/08/13 09:42:33;;;;;;;;;;;31.50;58.90;;;;;;5028028;28;19932;-82
2022/08/13 09:45:00;;;;;;;;;;;31.60;59.40;;;;;;5047229;28;20414;-84
2022/08/13 09:47:26;;;;;;;;;;;31.70;59.00;;;;;;5029174;28;19933;-83
2022/08/13 09:49:52;;;;;;;;;;;31.90;59.70;;;;;;5049632;28;19960;-83
2022/08/13 09:52:20;;;;;;;;;;;32.10;59.60;;;;;;5049076;28;19932;-91
2022/08/13 09:54:50;;;;;;;;;;;32.20;59.10;;;;;;5050204;28;19982;-81
2022/08/13 09:57:20;;;;;;;;;;;32.20;58.60;;;;;;5046409;28;19967;-82
2022/08/13 09:59:49;;;;;;;;;;;32.40;59.30;;;;;;5027850;28;19929;-84
2022/08/13 10:02:15;;;;;;;;;;;32.50;57.80;;;;;;5042908;28;19921;-83
2022/08/13 10:04:44;;;;;;;;;;;32.50;55.80;;;;;;5046303;28;19928;-83
2022/08/13 10:07:12;;;;;;;;;;;32.30;56.70;;;;;;5049431;28;19921;-82
2022/08/13 10:09:40;;;;;;;;;;;32.20;58.20;;;;;;5049242;28;20335;-79
2022/08/13 10:12:07;;;;;;;;;;;32.40;58.60;;;;;;5046961;28;20083;-80
2022/08/13 10:14:34;;;;;;;;;;;32.40;57.10;;;;;;5016418;28;20007;-81
2022/08/13 10:17:00;;;;;;;;;;;32.70;56.80;;;;;;5042715;28;20400;-81
2022/08/13 10:19:26;;;;;;;;;;;32.70;56.50;;;;;;5051562;28;19925;-83
2022/08/13 10:21:53;;;;;;;;;;;32.80;54.80;;;;;;5030207;28;20424;-85
2022/08/13 10:24:20;;;;;;;;;;;32.80;56.00;;;;;;5050296;28;19968;-84
2022/08/13 10:26:46;;;;;;;;;;;32.70;53.90;;;;;;5047789;28;19971;-81
2022/08/13 10:29:11;;;;;;;;;;;32.80;56.40;;;;;;5033653;28;19925;-84
2022/08/13 10:31:37;;;;;;;;;;;33.10;55.60;;;;;;5018522;28;19925;-89
2022/08/13 10:34:06;;;;;;;;;;;33.00;54.30;;;;;;5049717;28;19925;-84
2022/08/13 10:36:33;;;;;;;;;;;33.10;57.30;;;;;;5034071;28;19925;-84
2022/08/13 10:38:59;;;;;;;;;;;33.30;55.70;;;;;;5047785;28;20362;-82
2022/08/13 10:41:25;;;;;;;;;;;33.10;52.50;;;;;;5015033;28;19925;-80
2022/08/13 10:43:59;;;;;;;;;;;33.20;55.30;;;;;;5053355;28;19979;-83
2022/08/13 10:46:30;;;;;;;;;;;33.20;53.20;;;;;;5049078;28;20499;-85
2022/08/13 10:48:58;;;;;;;;;;;33.30;54.30;;;;;;5031970;28;19971;-85
2022/08/13 10:51:25;;;;;;;;;;;33.00;52.80;;;;;;5031853;28;20337;-85
2022/08/13 10:53:55;;;;;;;;;;;33.00;53.30;;;;;;5033906;28;19982;-84
2022/08/13 10:56:21;;;;;;;;;;;33.00;53.30;;;;;;5032351;28;19994;-81
2022/08/13 10:58:47;;;;;;;;;;;32.80;51.80;;;;;;5045637;28;20603;-82
2022/08/13 11:01:14;;;;;;;;;;;32.90;53.40;;;;;;5039502;28;19932;-85
2022/08/13 11:03:43;;;;;;;;;;;33.00;54.00;;;;;;5045650;28;19929;-84
2022/08/13 11:06:09;;;;;;;;;;;33.10;54.30;;;;;;5048180;28;19932;-85
2022/08/13 11:08:38;;;;;;;;;;;33.20;54.10;;;;;;5031871;28;19944;-84
2022/08/13 11:11:08;;;;;;;;;;;33.20;53.00;;;;;;5047445;28;19924;-83
2022/08/13 11:13:38;;;;;;;;;;;33.20;53.50;;;;;;5029644;28;20503;-79
2022/08/13 11:16:06;;;;;;;;;;;33.30;53.10;;;;;;5046750;28;19929;-89
2022/08/13 11:18:32;;;;;;;;;;;33.50;52.90;;;;;;5031023;28;20016;-80
2022/08/13 11:21:06;;;;;;;;;;;33.60;53.50;;;;;;5028163;28;20123;-87
2022/08/13 11:23:32;;;;;;;;;;;33.70;53.40;;;;;;5004759;28;19925;-83
2022/08/13 11:25:59;;;;;;;;;;;33.70;51.30;;;;;;5017042;28;19932;-83
2022/08/13 11:28:26;;;;;;;;;;;33.40;52.90;;;;;;5024923;28;19927;-83
2022/08/13 11:30:55;;;;;;;;;;;33.20;51.10;;;;;;5013423;28;19925;-84
2022/08/13 11:33:23;;;;;;;;;;;33.30;53.80;;;;;;5029322;28;20383;-80
2022/08/13 11:35:49;;;;;;;;;;;33.40;52.60;;;;;;5029275;28;19929;-82
2022/08/13 11:38:15;;;;;;;;;;;33.60;53.80;;;;;;5034820;28;19931;-81
2022/08/13 11:40:46;;;;;;;;;;;33.50;51.50;;;;;;5014115;28;20273;-84
2022/08/13 11:43:12;;;;;;;;;;;33.40;50.50;;;;;;5030123;28;19925;-85
2022/08/13 11:45:38;;;;;;;;;;;33.30;50.90;;;;;;5010632;28;20335;-83
2022/08/13 11:48:07;;;;;;;;;;;33.30;53.10;;;;;;5026761;28;20017;-79
2022/08/13 11:50:33;;;;;;;;;;;33.30;53.30;;;;;;5032434;28;19947;-79
2022/08/13 11:52:58;;;;;;;;;;;33.30;52.80;;;;;;5027665;28;20328;-81
2022/08/13 11:55:24;;;;;;;;;;;33.20;52.50;;;;;;5018832;28;20476;-83
2022/08/13 11:58:05;;;;;;;;;;;33.20;51.50;;;;;;5010259;28;19936;-80
2022/08/13 12:00:31;;;;;;;;;;;33.30;52.20;;;;;;5011829;28;20323;-82
2022/08/13 12:02:57;;;;;;;;;;;33.10;50.90;;;;;;5014162;28;19925;-82
2022/08/13 12:05:23;;;;;;;;;;;32.90;50.60;;;;;;5023838;28;19929;-82
2022/08/13 12:07:49;;;;;;;;;;;32.80;52.10;;;;;;5020837;28;20310;-83
2022/08/13 12:10:16;;;;;;;;;;;32.60;51.60;;;;;;5035800;28;20019;-81
2022/08/13 12:12:43;;;;;;;;;;;32.40;52.00;;;;;;5061359;28;20340;-83
2022/08/13 12:15:10;;;;;;;;;;;32.50;53.20;;;;;;5070075;28;19950;-83
2022/08/13 12:17:39;;;;;;;;;;;32.70;53.70;;;;;;5063791;28;19934;-78
2022/08/13 12:20:06;;;;;;;;;;;32.60;50.90;;;;;;5060606;28;20019;-84
2022/08/13 12:22:32;;;;;;;;;;;32.40;51.90;;;;;;5078657;28;20030;-81
2022/08/13 12:24:58;;;;;;;;;;;32.30;51.90;;;;;;5055420;28;20064;-81
2022/08/13 12:27:24;;;;;;;;;;;32.20;52.50;;;;;;5077961;28;19964;-84
2022/08/13 12:29:50;;;;;;;;;;;32.20;52.90;;;;;;5052630;28;19981;-84
2022/08/13 12:32:16;;;;;;;;;;;32.20;52.20;;;;;;5076351;28;20023;-81
2022/08/13 12:34:42;;;;;;;;;;;32.20;52.00;;;;;;5035215;28;19952;-80
2022/08/13 12:37:08;;;;;;;;;;;32.20;51.70;;;;;;5038415;28;20670;-80
2022/08/13 12:39:33;;;;;;;;;;;32.20;53.30;;;;;;5075248;28;20426;-81
2022/08/13 12:41:59;;;;;;;;;;;32.20;52.60;;;;;;5065896;28;19972;-83
2022/08/13 12:44:25;;;;;;;;;;;32.10;52.90;;;;;;5060539;28;19947;-82
2022/08/13 12:46:51;;;;;;;;;;;32.00;53.20;;;;;;5057182;28;20421;-82
2022/08/13 12:49:17;;;;;;;;;;;31.90;52.80;;;;;;5060336;28;19936;-84
2022/08/13 12:51:43;;;;;;;;;;;31.90;52.40;;;;;;5035837;28;19933;-79
2022/08/13 12:54:09;;;;;;;;;;;31.70;52.30;;;;;;5071108;28;20810;-81
2022/08/13 12:56:37;;;;;;;;;;;31.70;52.90;;;;;;5037183;28;19955;-81
2022/08/13 12:59:03;;;;;;;;;;;31.70;53.60;;;;;;5031139;28;20350;-81
2022/08/13 13:01:32;;;;;;;;;;;31.70;53.60;;;;;;5031556;28;19937;-82
2022/08/13 13:03:58;;;;;;;;;;;31.50;52.70;;;;;;5057720;28;19971;-81
2022/08/13 13:06:27;;;;;;;;;;;31.50;54.00;;;;;;5049162;28;19925;-86
2022/08/13 13:08:53;;;;;;;;;;;31.40;53.80;;;;;;5041604;28;19964;-81
2022/08/13 13:11:18;;;;;;;;;;;31.30;53.70;;;;;;5013360;28;19971;-83
2022/08/13 13:13:49;;;;;;;;;;;31.30;54.30;;;;;;5019416;28;20456;-84
2022/08/13 13:16:16;;;;;;;;;;;31.10;53.60;;;;;;5022416;28;19975;-84
2022/08/13 13:18:43;;;;;;;;;;;31.10;54.60;;;;;;5047152;28;19924;-82
2022/08/13 13:21:09;;;;;;;;;;;31.10;54.60;;;;;;5017428;28;19929;-84
2022/08/13 13:23:39;;;;;;;;;;;31.00;54.50;;;;;;5040921;28;19929;-82
2022/08/13 13:26:05;;;;;;;;;;;31.00;54.10;;;;;;5047139;28;19987;-80
2022/08/13 13:28:31;;;;;;;;;;;30.90;53.40;;;;;;5051276;28;19929;-83
2022/08/13 13:30:58;;;;;;;;;;;30.90;53.80;;;;;;5029100;28;19929;-80
2022/08/13 13:33:24;;;;;;;;;;;30.80;54.70;;;;;;5042187;28;19928;-82
2022/08/13 13:35:51;;;;;;;;;;;30.80;55.60;;;;;;5046948;28;20378;-83
2022/08/13 13:38:21;;;;;;;;;;;30.80;55.10;;;;;;5031032;28;20023;-84
2022/08/13 13:40:48;;;;;;;;;;;30.70;55.00;;;;;;5037323;28;19932;-83
2022/08/13 13:43:24;;;;;;;;;;;30.50;55.10;;;;;;5068155;28;20255;-81
2022/08/13 13:45:50;;;;;;;;;;;30.30;54.60;;;;;;5050975;28;19941;-82
2022/08/13 13:48:18;;;;;;;;;;;30.20;55.20;;;;;;5043787;28;20469;-82
2022/08/13 13:50:44;;;;;;;;;;;30.10;55.30;;;;;;5020429;28;20492;-82
2022/08/13 13:53:11;;;;;;;;;;;30.10;55.20;;;;;;5030255;28;19939;-85
2022/08/13 13:55:37;;;;;;;;;;;30.20;56.00;;;;;;5032353;28;19936;-78
2022/08/13 13:58:03;;;;;;;;;;;30.20;55.70;;;;;;5051994;28;19932;-78
2022/08/13 14:00:30;;;;;;;;;;;30.20;56.50;;;;;;5039862;28;19928;-84
2022/08/13 14:02:55;;;;;;;;;;;30.20;57.30;;;;;;5032249;28;19935;-83
2022/08/13 14:05:21;;;;;;;;;;;30.20;56.80;;;;;;5058251;28;19925;-79
2022/08/13 14:07:56;;;;;;;;;;;30.20;56.00;;;;;;5017796;28;19994;-84
2022/08/13 14:10:22;;;;;;;;;;;30.20;55.30;;;;;;5031370;28;19932;-82
2022/08/13 14:12:49;;;;;;;;;;;30.20;56.30;;;;;;5040702;28;19951;-80
2022/08/13 14:15:15;;;;;;;;;;;30.10;56.10;;;;;;5011608;28;19962;-82
2022/08/13 14:17:42;;;;;;;;;;;30.10;56.70;;;;;;5028345;28;20375;-82
2022/08/13 14:20:11;;;;;;;;;;;29.90;57.10;;;;;;5014329;28;20406;-81
2022/08/13 14:22:38;;;;;;;;;;;29.80;57.40;;;;;;4999853;28;19937;-82
2022/08/13 14:25:08;;;;;;;;;;;29.80;57.20;;;;;;4999342;28;19956;-82
2022/08/13 14:27:36;;;;;;;;;;;29.70;57.40;;;;;;5032700;28;20361;-83
2022/08/13 14:30:03;;;;;;;;;;;29.70;56.80;;;;;;5026860;28;19929;-83
2022/08/13 14:32:30;;;;;;;;;;;29.70;56.70;;;;;;4999621;28;20396;-81
2022/08/13 14:35:00;;;;;;;;;;;29.70;56.10;;;;;;5031968;28;20346;-83
2022/08/13 14:37:26;;;;;;;;;;;29.70;55.50;;;;;;5031813;28;20536;-81
2022/08/13 14:39:52;;;;;;;;;;;29.70;56.60;;;;;;5031121;28;19925;-79
2022/08/13 14:42:35;;;;;;;;;;;29.70;56.20;;;;;;4999367;28;19935;-80
2022/08/13 14:47:52;;;;;;;;;;;29.70;56.70;;;;;;5029799;28;19948;-81
2022/08/13 14:50:19;;;;;;;;;;;29.70;56.60;;;;;;5031725;28;19925;-81
2022/08/13 14:52:45;;;;;;;;;;;29.60;57.80;;;;;;5013442;28;20011;-81
2022/08/13 14:55:12;;;;;;;;;;;29.60;57.10;;;;;;5014648;28;20400;-80